Flight Track Log - Related Links

Times and Time Zones

All times are in EST time to prevent confusion due to time zone crossing. See the EJA829P flight status page for this flight to view local times or setup timezone preferences in your user account.


Time Position Orientation Groundspeed Altitude Reporting Facility
EST Latitude Longitude Course Direction KTS MPH feet Rate Location/Type
Sun 09:23:50 AM 27.6847 -80.4119 296° West 400 460 1,500  Level Miami Center
Sun 09:24:50 AM 27.7411 -80.4089 North 256 295 3,900 2,850 Climbing Miami Center
Sun 09:25:50 AM 27.7603 -80.4847 286° West 202 232 7,200 3,200 Climbing Miami Center
Sun 09:26:50 AM 27.7769 -80.5625 284° West 249 287 10,300 3,000 Climbing Miami Center
Sun 09:27:00 AM 28.2900 -80.2357 North  Level Estimated
Sun 09:27:50 AM 27.8169 -80.6367 301° West 272 313 13,200  Level Miami Center
Sun 09:28:00 AM 28.3957 -80.2051 354° North  Level Estimated
Sun 09:28:50 AM 27.8689 -80.7183 306° West 293 337 15,700  Level Miami Center
Sun 09:29:00 AM 28.4432 -80.3168 296° West  Level FlightAware Approximate
Sun 09:29:50 AM 27.9294 -80.7931 313° West 312 359 17,900  Level Miami Center
Sun 09:30:50 AM 28.0008 -80.8567 322° Northwest 317 365 20,000 1,800 Climbing Miami Center
Sun 09:31:50 AM 28.0742 -80.9206 322° Northwest 322 371 21,500 1,700 Climbing Miami Center
Sun 09:32:50 AM 28.1475 -80.9844 322° Northwest 327 376 23,400 1,750 Climbing Miami Center
Sun 09:33:50 AM 28.2253 -81.0344 330° Northwest 341 392 25,000 1,600 Climbing Miami Center
Sun 09:34:50 AM 28.3203 -81.0733 340° North 347 399 26,600 1,550 Climbing Miami Center
Sun 09:35:50 AM 28.4194 -81.1053 344° North 360 414 28,100 1,600 Climbing Miami Center
Sun 09:36:50 AM 28.5189 -81.1281 349° North 360 414 29,800 1,700 Climbing Miami Center
Sun 09:37:50 AM 28.6164 -81.1483 350° North 365 420 31,500 1,700 Climbing Miami Center
Sun 09:38:50 AM 28.7094 -81.1708 348° North 354 407 33,200 1,617 Climbing Miami Center
Sun 09:39:45 AM 28.8086 -81.1889 351° North 348 400 34,600 1,252 Climbing Jacksonville Center
Sun 09:40:45 AM 28.9047 -81.2064 351° North 358 412 35,600 1,000 Climbing Jacksonville Center
Sun 09:41:45 AM 29.0053 -81.2258 350° North 345 397 36,600 1,150 Climbing Jacksonville Center
Sun 09:42:45 AM 29.1053 -81.2242 North 359 413 37,900 1,150 Climbing Jacksonville Center
Sun 09:43:45 AM 29.2092 -81.1917 15° North 374 430 38,900 550 Climbing Jacksonville Center
Sun 09:44:45 AM 29.3133 -81.1611 14° North 379 436 39,000 50 Climbing Jacksonville Center
Sun 09:45:45 AM 29.4275 -81.1281 14° North 403 464 39,000  Level Jacksonville Center
Sun 09:46:45 AM 29.5233 -81.0978 15° North 408 470 39,000  Level Jacksonville Center
Sun 09:47:45 AM 29.6375 -81.0622 15° North 408 470 39,000  Level Jacksonville Center
Sun 09:48:45 AM 29.7519 -81.0289 14° North 414 476 39,000  Level Jacksonville Center
Sun 09:49:45 AM 29.8683 -80.9933 15° North 414 476 39,000  Level Jacksonville Center
Sun 09:50:45 AM 29.9825 -80.9575 15° North 414 476 39,000  Level Jacksonville Center
Sun 09:51:45 AM 30.0989 -80.9214 15° North 414 476 39,000  Level Jacksonville Center
Sun 09:52:45 AM 30.2131 -80.8856 15° North 414 476 39,000  Level Jacksonville Center
Sun 09:53:45 AM 30.3294 -80.8517 14° North 419 482 39,000  Level Jacksonville Center
Sun 09:54:45 AM 30.4458 -80.8156 15° North 424 488 39,000  Level Jacksonville Center
Sun 09:55:45 AM 30.5597 -80.7647 21° North 429 494 39,000  Level Jacksonville Center
Sun 09:56:45 AM 30.6739 -80.7164 20° North 435 501 39,000  Level Jacksonville Center
Sun 09:57:45 AM 30.7878 -80.6631 22° Northeast 435 501 39,000  Level Jacksonville Center
Sun 09:58:45 AM 30.8997 -80.6119 21° North 435 501 39,000  Level Jacksonville Center
Sun 09:59:45 AM 31.0156 -80.5606 21° North 430 495 39,000  Level Jacksonville Center
Sun 10:00:45 AM 31.1294 -80.5069 22° Northeast 430 495 39,000  Level Jacksonville Center
Sun 10:01:45 AM 31.2433 -80.4578 20° North 430 495 39,000  Level Jacksonville Center
Sun 10:02:45 AM 31.3633 -80.4036 21° North 430 495 39,000  Level Jacksonville Center
Sun 10:03:45 AM 31.4792 -80.3469 23° Northeast 430 495 39,000  Level Jacksonville Center
Sun 10:04:45 AM 31.5908 -80.2950 22° Northeast 430 495 39,000  Level Jacksonville Center
Sun 10:05:45 AM 31.7047 -80.2456 20° North 430 495 39,000  Level Jacksonville Center
Sun 10:06:45 AM 31.8183 -80.1908 22° Northeast 430 495 39,000  Level Jacksonville Center
Sun 10:07:45 AM 31.9300 -80.1411 21° North 430 495 39,000  Level Jacksonville Center
Sun 10:08:45 AM 32.0417 -80.0889 22° Northeast 430 495 39,000  Level Jacksonville Center
Sun 10:09:45 AM 32.1531 -80.0364 22° Northeast 430 495 39,000  Level Jacksonville Center
Sun 10:10:45 AM 32.2667 -79.9836 21° North 430 495 39,000  Level Jacksonville Center
Sun 10:11:45 AM 32.3700 -79.9336 22° Northeast 430 495 39,000  Level Jacksonville Center
Sun 10:12:45 AM 32.4836 -79.8808 21° North 430 495 39,000  Level Jacksonville Center
Sun 10:13:45 AM 32.5950 -79.8253 23° Northeast 430 495 39,000  Level Jacksonville Center
Sun 10:14:45 AM 32.7106 -79.7719 21° North 430 495 39,000  Level Jacksonville Center
Sun 10:15:45 AM 32.8219 -79.7161 23° Northeast 430 495 39,000  Level Jacksonville Center
Sun 10:16:45 AM 32.9375 -79.6650 20° North 430 495 39,000  Level Jacksonville Center
Sun 10:17:45 AM 33.0508 -79.6089 23° Northeast 430 495 39,000  Level Jacksonville Center
Sun 10:18:45 AM 33.1642 -79.5553 22° Northeast 425 489 39,000  Level Jacksonville Center
Sun 10:19:45 AM 33.2794 -79.5011 21° North 425 489 39,000  Level Jacksonville Center
Sun 10:20:45 AM 33.3928 -79.4469 22° Northeast 425 489 39,000  Level Jacksonville Center
Sun 10:21:45 AM 33.5042 -79.3931 22° Northeast 425 489 39,000  Level Jacksonville Center
Sun 10:22:45 AM 33.6172 -79.3361 23° Northeast 430 495 39,000  Level Jacksonville Center
Sun 10:23:45 AM 33.7389 -79.2836 20° North 425 489 39,000  Level Jacksonville Center
Sun 10:24:45 AM 33.8500 -79.2292 22° Northeast 420 483 39,000  Level Jacksonville Center
Sun 10:25:45 AM 33.9633 -79.1769 21° North 431 496 39,000  Level Jacksonville Center
Sun 10:26:45 AM 34.0742 -79.1219 22° Northeast 431 496 39,000  Level Jacksonville Center
Sun 10:27:45 AM 34.1872 -79.0644 23° Northeast 431 496 39,000  Level Jacksonville Center
Sun 10:28:45 AM 34.3022 -79.0014 24° Northeast 431 496 39,000  Level Jacksonville Center
Sun 10:30:15 AM 34.4497 -78.8911 32° Northeast 446 513 39,000  Level Washington Center
Sun 10:31:15 AM 34.5564 -78.8047 34° Northeast 452 520 39,000  Level Washington Center
Sun 10:32:16 AM 34.6672 -78.7206 32° Northeast 460 529 39,000  Level Washington Center
Sun 10:33:14 AM 34.7864 -78.6292 32° Northeast 460 529 39,000  Level Washington Center
Sun 10:34:14 AM 34.8819 -78.5567 32° Northeast 455 524 39,000  Level Washington Center
Sun 10:35:15 AM 34.9883 -78.4719 33° Northeast 455 524 39,000 -595 Level Washington Center
Sun 10:36:15 AM 35.1025 -78.4175 21° North 442 509 37,800 -992 Descending Washington Center
Sun 10:37:16 AM 35.2161 -78.3683 19° North 432 497 37,000 -397 Descending Washington Center
Sun 10:38:16 AM 35.3450 -78.3089 21° North 440 506 37,000  Level Washington Center
Sun 10:39:14 AM 35.4650 -78.2544 20° North 445 512 37,000  Level Washington Center
Sun 10:40:14 AM 35.5850 -78.2022 19° North 450 518 37,000  Level Washington Center
Sun 10:41:15 AM 35.6989 -78.1547 19° North 450 518 37,000 -443 Level Washington Center
Sun 10:42:16 AM 35.8125 -78.1022 21° North 445 512 36,100 -1,261 Descending Washington Center
Sun 10:43:14 AM 35.9306 -78.0519 19° North 440 506 34,500 -1,563 Descending Washington Center
Sun 10:44:15 AM 36.0442 -77.9989 21° North 440 506 33,000 -1,525 Descending Washington Center
Sun 10:45:16 AM 36.1600 -77.9458 20° North 440 506 31,400 -1,563 Descending Washington Center
Sun 10:46:14 AM 36.2736 -77.8953 20° North 434 499 29,900 -1,220 Descending Washington Center
Sun 10:47:14 AM 36.3894 -77.8419 20° North 434 499 29,000 -446 Descending Washington Center
Sun 10:48:15 AM 36.4906 -77.7931 21° North 434 499 29,000  Level Washington Center
Sun 10:49:15 AM 36.6083 -77.7394 20° North 434 499 29,000 -200 Level Washington Center
Sun 10:50:15 AM 36.7239 -77.6883 20° North 434 499 28,600 -496 Descending Washington Center
Sun 10:51:16 AM 36.8375 -77.6342 21° North 434 499 28,000 -446 Descending Washington Center
Sun 10:52:16 AM 36.9533 -77.5775 21° North 434 499 27,700 -508 Descending Washington Center
Sun 10:53:14 AM 37.0647 -77.5311 18° North 428 493 27,000 -356 Descending Washington Center
Sun 10:54:14 AM 37.1778 -77.5000 12° North 422 486 27,000  Level Washington Center
Sun 10:55:14 AM 37.2908 -77.4661 13° North 417 480 27,000 992 Level Washington Center
Sun 10:56:15 AM 37.4083 -77.4325 13° North 417 480 29,000 -1,438 Climbing Washington Center
Sun 10:57:15 AM 37.5194 -77.3986 14° North 411 473 24,100 -3,124 Descending Washington Center
Sun 10:58:16 AM 37.6303 -77.3644 14° North 411 473 22,700 -1,361 Descending Washington Center
Sun 10:59:14 AM 37.7372 -77.3328 13° North 406 467 21,400 -1,169 Descending Washington Center
Sun 11:00:14 AM 37.8442 -77.3011 13° North 401 461 20,400 -1,050 Descending Washington Center
Sun 11:01:14 AM 37.9489 -77.2692 14° North 391 450 19,300 -1,140 Descending Washington Center
Sun 11:02:15 AM 38.0619 -77.2375 12° North 386 444 18,100 -1,091 Descending Washington Center
Sun 11:03:15 AM 38.1644 -77.2053 14° North 375 432 17,100 -893 Descending Washington Center
Sun 11:04:16 AM 38.2419 -77.1806 14° North 370 426 16,300 -958 Descending Washington Center
Sun 11:05:14 AM 38.3572 -77.1458 13° North 359 413 15,200 -1,322 Descending Washington Center
Sun 11:06:14 AM 38.4394 -77.0733 35° Northeast 342 394 13,700 -1,537 Descending Washington Center
Sun 11:07:15 AM 38.5156 -76.9794 44° Northeast 356 410 12,100 -1,339 Descending Washington Center
Sun 11:08:15 AM 38.5875 -76.8878 45° Northeast 362 417 11,000 -1,091 Descending Washington Center
Sun 11:09:16 AM 38.6550 -76.8067 43° Northeast 351 404 9,900 -1,059 Descending Washington Center
Sun 11:10:14 AM 38.7142 -76.7278 46° Northeast 326 375 8,900 -1,160 Descending Washington Center
Sun 11:11:15 AM 38.7544 -76.6353 61° Northeast 302 348 7,600 -1,279 Descending Washington Center
Sun 11:12:16 AM 38.7992 -76.5425 58° Northeast 302 348 6,300 -1,378 Descending Washington Center
Sun 11:13:30 AM 38.8833 -76.5333 North 253 291 4,500 -1,075 Descending Potomac TRACON
Sun 11:14:30 AM 38.9500 -76.5500 349° North 243 280 3,900 -789 Descending Potomac TRACON
Sun 11:15:24 AM 39.0167 -76.5667 349° North 209 241 3,000 -1,000 Descending Potomac TRACON
Sun 11:16:24 AM 39.0667 -76.5667 360° North 195 224 2,000 -750 Descending Potomac TRACON
Sun 11:17:24 AM 39.1000 -76.5833 339° North 144 166 1,500 -400 Descending Potomac TRACON
Sun 11:18:24 AM 39.1333 -76.6167 322° Northwest 118 136 1,200 -450 Descending Potomac TRACON
Sun 11:19:24 AM 39.1500 -76.6333 322° Northwest 107 123 600 -600 Descending Potomac TRACON
Sun 11:21:00 AM 39.1667 -76.6667 339° North  Level FlightAware Approximate

Login

Don't have an account? Register now (free) for customized features, flight alerts, and more!